Wetterdaten: Woche 09.04.07 - 15.04.07 (KW15)
Datum Zeit Temperatur Luftfeuchte Luftdruck Niederschlag Windrichtung Wind
09.04.2007 00:00 4,5 C 71 % 1022 hPa 0,0 l/m - - 0,0 km/h (0 Bft)
09.04.2007 01:00 3,6 C 75 % 1021 hPa 0,0 l/m - - 0,0 km/h (0 Bft)
09.04.2007 02:00 2,7 C 78 % 1021 hPa 0,0 l/m - - 0,0 km/h (0 Bft)
09.04.2007 03:00 1,9 C 81 % 1021 hPa 0,0 l/m - - 0,0 km/h (0 Bft)
09.04.2007 04:00 1,2 C 85 % 1021 hPa 0,0 l/m - - 0,0 km/h (0 Bft)
09.04.2007 05:00 0,7 C 88 % 1021 hPa 0,0 l/m - - 0,0 km/h (0 Bft)
09.04.2007 06:00 0,1 C 88 % 1021 hPa 0,0 l/m - - 0,0 km/h (0 Bft)
09.04.2007 07:00 -0,1 C 91 % 1021 hPa 0,0 l/m - - 0,0 km/h (0 Bft)
09.04.2007 08:00 1,8 C 93 % 1021 hPa 0,0 l/m - - 0,0 km/h (0 Bft)
09.04.2007 09:00 6,8 C 87 % 1021 hPa 0,0 l/m - - 0,0 km/h (0 Bft)
09.04.2007 10:00 10,9 C 65 % 1021 hPa 0,0 l/m - - 0,0 km/h (0 Bft)
09.04.2007 11:00 13,7 C 55 % 1021 hPa 0,0 l/m - - 0,0 km/h (0 Bft)
09.04.2007 12:00 15,1 C 46 % 1021 hPa 0,0 l/m - - 0,0 km/h (0 Bft)
09.04.2007 13:00 16,4 C 38 % 1020 hPa 0,0 l/m - - 0,0 km/h (0 Bft)
09.04.2007 14:00 17,8 C 34 % 1020 hPa 0,0 l/m - - 0,0 km/h (0 Bft)
09.04.2007 15:00 18,7 C 34 % 1019 hPa 0,0 l/m - - 0,0 km/h (0 Bft)
09.04.2007 16:00 18,3 C 35 % 1019 hPa 0,0 l/m - - 0,0 km/h (0 Bft)
09.04.2007 17:00 17,6 C 35 % 1019 hPa 0,0 l/m - - 0,0 km/h (0 Bft)
09.04.2007 18:00 17,6 C 34 % 1019 hPa 0,0 l/m - - 0,0 km/h (0 Bft)
09.04.2007 19:00 16,2 C 35 % 1019 hPa 0,0 l/m - - 0,0 km/h (0 Bft)
09.04.2007 20:00 14,5 C 37 % 1019 hPa 0,0 l/m - - 0,0 km/h (0 Bft)
09.04.2007 21:00 12,7 C 39 % 1020 hPa 0,0 l/m - - 0,0 km/h (0 Bft)
09.04.2007 22:00 10,1 C 48 % 1020 hPa 0,0 l/m - - 0,0 km/h (0 Bft)
09.04.2007 23:00 8,2 C 53 % 1021 hPa 0,0 l/m - - 0,0 km/h (0 Bft)
10.04.2007 00:00 6,9 C 60 % 1021 hPa 0,0 l/m - - 0,0 km/h (0 Bft)
10.04.2007 01:00 5,7 C 68 % 1021 hPa 0,0 l/m - - 0,0 km/h (0 Bft)
10.04.2007 02:00 4,6 C 73 % 1021 hPa 0,0 l/m - - 0,0 km/h (0 Bft)
10.04.2007 03:00 3,8 C 76 % 1021 hPa 0,0 l/m - - 0,0 km/h (0 Bft)
10.04.2007 04:00 3,1 C 80 % 1021 hPa 0,0 l/m - - 0,0 km/h (0 Bft)
10.04.2007 05:00 2,5 C 83 % 1021 hPa 0,0 l/m - - 0,0 km/h (0 Bft)
10.04.2007 06:00 2,2 C 86 % 1021 hPa 0,0 l/m - - 0,0 km/h (0 Bft)
10.04.2007 07:00 2,5 C 88 % 1021 hPa 0,0 l/m - - 0,0 km/h (0 Bft)
10.04.2007 08:00 5,8 C 80 % 1022 hPa 0,0 l/m - - 0,0 km/h (0 Bft)
10.04.2007 09:00 10,2 C 62 % 1022 hPa 0,0 l/m - - 0,0 km/h (0 Bft)
10.04.2007 10:00 13,8 C 50 % 1022 hPa 0,0 l/m - - 0,0 km/h (0 Bft)
10.04.2007 11:00 16,3 C 39 % 1022 hPa 0,0 l/m - - 0,0 km/h (0 Bft)
10.04.2007 12:00 17,2 C 35 % 1022 hPa 0,0 l/m - - 0,0 km/h (0 Bft)
10.04.2007 13:00 17,7 C 34 % 1022 hPa 0,0 l/m - - 0,0 km/h (0 Bft)
10.04.2007 14:00 19,2 C 29 % 1021 hPa 0,0 l/m - - 0,0 km/h (0 Bft)
10.04.2007 15:00 19,6 C 27 % 1021 hPa 0,0 l/m - - 0,0 km/h (0 Bft)
10.04.2007 16:00 19,3 C 28 % 1021 hPa 0,0 l/m - - 0,0 km/h (0 Bft)
10.04.2007 17:00 19,5 C 27 % 1021 hPa 0,0 l/m - - 0,0 km/h (0 Bft)
10.04.2007 18:00 18,8 C 28 % 1021 hPa 0,0 l/m - - 0,0 km/h (0 Bft)
10.04.2007 19:00 16,3 C 35 % 1022 hPa 0,0 l/m - - 0,0 km/h (0 Bft)
10.04.2007 20:00 14,3 C 39 % 1023 hPa 0,0 l/m - - 0,0 km/h (0 Bft)
10.04.2007 21:00 12,5 C 45 % 1023 hPa 0,0 l/m - - 0,0 km/h (0 Bft)
10.04.2007 22:00 10,7 C 51 % 1024 hPa 0,0 l/m - - 0,0 km/h (0 Bft)
10.04.2007 23:00 9,4 C 56 % 1024 hPa 0,0 l/m - - 0,0 km/h (0 Bft)
11.04.2007 00:00 8,4 C 61 % 1024 hPa 0,0 l/m - - 0,0 km/h (0 Bft)
11.04.2007 01:00 7,7 C 66 % 1024 hPa 0,0 l/m - - 0,0 km/h (0 Bft)
11.04.2007 02:00 6,9 C 71 % 1024 hPa 0,0 l/m - - 0,0 km/h (0 Bft)
11.04.2007 03:00 6,2 C 73 % 1024 hPa 0,0 l/m - - 0,0 km/h (0 Bft)
11.04.2007 04:00 5,7 C 76 % 1023 hPa 0,0 l/m - - 0,0 km/h (0 Bft)
11.04.2007 05:00 5,5 C 78 % 1023 hPa 0,0 l/m - - 0,0 km/h (0 Bft)
11.04.2007 06:00 5,1 C 80 % 1023 hPa 0,0 l/m - - 0,0 km/h (0 Bft)
11.04.2007 07:00 5,4 C 82 % 1024 hPa 0,0 l/m - - 0,0 km/h (0 Bft)
11.04.2007 08:00 7,7 C 76 % 1024 hPa 0,0 l/m - - 0,0 km/h (0 Bft)
11.04.2007 09:00 11,2 C 57 % 1024 hPa 0,0 l/m - - 0,0 km/h (0 Bft)
11.04.2007 10:00 14,0 C 47 % 1024 hPa 0,0 l/m - - 0,0 km/h (0 Bft)
11.04.2007 11:00 15,8 C 40 % 1024 hPa 0,0 l/m - - 0,0 km/h (0 Bft)
11.04.2007 12:00 16,9 C 38 % 1024 hPa 0,0 l/m - - 0,0 km/h (0 Bft)
11.04.2007 13:00 17,9 C 36 % 1023 hPa 0,0 l/m - - 0,0 km/h (0 Bft)
11.04.2007 14:00 18,8 C 35 % 1023 hPa 0,0 l/m - - 0,0 km/h (0 Bft)
11.04.2007 15:00 19,3 C 34 % 1022 hPa 0,0 l/m - - 0,0 km/h (0 Bft)
11.04.2007 16:00 19,4 C 33 % 1022 hPa 0,0 l/m - - 0,0 km/h (0 Bft)
11.04.2007 17:00 19,1 C 33 % 1021 hPa 0,0 l/m - - 0,0 km/h (0 Bft)
11.04.2007 18:00 18,7 C 35 % 1021 hPa 0,0 l/m - - 0,0 km/h (0 Bft)
11.04.2007 19:00 17,2 C 39 % 1021 hPa 0,0 l/m - - 0,0 km/h (0 Bft)
11.04.2007 20:00 15,2 C 46 % 1022 hPa 0,0 l/m - - 0,0 km/h (0 Bft)
11.04.2007 21:00 13,2 C 52 % 1022 hPa 0,0 l/m - - 0,0 km/h (0 Bft)
11.04.2007 22:00 11,7 C 58 % 1022 hPa 0,0 l/m - - 0,0 km/h (0 Bft)
11.04.2007 23:00 10,9 C 61 % 1022 hPa 0,0 l/m - - 0,0 km/h (0 Bft)
12.04.2007 00:00 10,2 C 63 % 1022 hPa 0,0 l/m - - 0,0 km/h (0 Bft)
12.04.2007 01:00 9,6 C 65 % 1022 hPa 0,0 l/m - - 0,0 km/h (0 Bft)
12.04.2007 02:00 8,9 C 68 % 1022 hPa 0,0 l/m - - 0,0 km/h (0 Bft)
12.04.2007 03:00 8,2 C 72 % 1021 hPa 0,0 l/m - - 0,0 km/h (0 Bft)
12.04.2007 04:00 7,8 C 73 % 1021 hPa 0,0 l/m - - 0,0 km/h (0 Bft)
12.04.2007 05:00 7,0 C 76 % 1021 hPa 0,0 l/m - - 0,0 km/h (0 Bft)
12.04.2007 06:00 7,0 C 79 % 1021 hPa 0,0 l/m - - 0,0 km/h (0 Bft)
12.04.2007 07:00 7,3 C 79 % 1021 hPa 0,0 l/m - - 0,0 km/h (0 Bft)
12.04.2007 08:00 9,2 C 72 % 1022 hPa 0,0 l/m - - 0,0 km/h (0 Bft)
12.04.2007 09:00 11,4 C 62 % 1022 hPa 0,0 l/m - - 0,0 km/h (0 Bft)
12.04.2007 10:00 14,2 C 54 % 1022 hPa 0,0 l/m - - 0,0 km/h (0 Bft)
12.04.2007 11:00 17,1 C 47 % 1022 hPa 0,0 l/m - - 0,0 km/h (0 Bft)
12.04.2007 12:00 18,9 C 41 % 1022 hPa 0,0 l/m - - 0,0 km/h (0 Bft)
12.04.2007 13:00 20,6 C 36 % 1021 hPa 0,0 l/m - - 0,0 km/h (0 Bft)
12.04.2007 14:00 22,4 C 31 % 1021 hPa 0,0 l/m - - 0,0 km/h (0 Bft)
12.04.2007 15:00 22,9 C 30 % 1021 hPa 0,0 l/m - - 0,0 km/h (0 Bft)
12.04.2007 16:00 22,9 C 31 % 1020 hPa 0,0 l/m - - 0,0 km/h (0 Bft)
12.04.2007 17:00 22,3 C 32 % 1020 hPa 0,0 l/m - - 0,0 km/h (0 Bft)
12.04.2007 18:00 21,7 C 33 % 1020 hPa 0,0 l/m - - 0,0 km/h (0 Bft)
12.04.2007 19:00 20,1 C 37 % 1020 hPa 0,0 l/m - - 0,0 km/h (0 Bft)
12.04.2007 20:00 18,2 C 44 % 1021 hPa 0,0 l/m - - 0,0 km/h (0 Bft)
12.04.2007 21:00 15,6 C 52 % 1021 hPa 0,0 l/m - - 0,0 km/h (0 Bft)
12.04.2007 22:00 13,9 C 60 % 1021 hPa 0,0 l/m - - 0,0 km/h (0 Bft)
12.04.2007 23:00 13,0 C 64 % 1021 hPa 0,0 l/m - - 0,0 km/h (0 Bft)
13.04.2007 00:00 12,4 C 67 % 1021 hPa 0,0 l/m - - 0,0 km/h (0 Bft)
13.04.2007 01:00 11,9 C 70 % 1020 hPa 0,0 l/m - - 0,0 km/h (0 Bft)
13.04.2007 02:00 11,1 C 73 % 1020 hPa 0,0 l/m - - 0,0 km/h (0 Bft)
13.04.2007 03:00 10,6 C 76 % 1020 hPa 0,0 l/m - - 0,0 km/h (0 Bft)
13.04.2007 04:00 10,1 C 77 % 1020 hPa 0,0 l/m - - 0,0 km/h (0 Bft)
13.04.2007 05:00 9,5 C 79 % 1020 hPa 0,0 l/m - - 0,0 km/h (0 Bft)
13.04.2007 06:00 8,8 C 81 % 1020 hPa 0,0 l/m - - 0,0 km/h (0 Bft)
13.04.2007 07:00 8,5 C 84 % 1020 hPa 0,0 l/m - - 0,0 km/h (0 Bft)
13.04.2007 08:00 10,4 C 80 % 1020 hPa 0,0 l/m - - 0,0 km/h (0 Bft)
13.04.2007 09:00 13,7 C 64 % 1020 hPa 0,0 l/m - - 0,0 km/h (0 Bft)
13.04.2007 10:00 15,9 C 56 % 1020 hPa 0,0 l/m - - 0,0 km/h (0 Bft)
13.04.2007 11:00 18,8 C 48 % 1020 hPa 0,0 l/m - - 0,0 km/h (0 Bft)
13.04.2007 12:00 21,2 C 35 % 1020 hPa 0,0 l/m - - 0,0 km/h (0 Bft)
13.04.2007 13:00 22,1 C 33 % 1019 hPa 0,0 l/m - - 0,0 km/h (0 Bft)
13.04.2007 14:00 23,6 C 31 % 1019 hPa 0,0 l/m - - 0,0 km/h (0 Bft)
13.04.2007 15:00 24,1 C 27 % 1019 hPa 0,0 l/m - - 0,0 km/h (0 Bft)
13.04.2007 16:00 24,2 C 27 % 1018 hPa 0,0 l/m - - 0,0 km/h (0 Bft)
13.04.2007 17:00 23,9 C 26 % 1018 hPa 0,0 l/m - - 0,0 km/h (0 Bft)
13.04.2007 18:00 23,4 C 26 % 1018 hPa 0,0 l/m - - 0,0 km/h (0 Bft)
13.04.2007 19:00 22,1 C 31 % 1018 hPa 0,0 l/m - - 0,0 km/h (0 Bft)
13.04.2007 20:00 19,9 C 39 % 1019 hPa 0,0 l/m - - 0,0 km/h (0 Bft)
13.04.2007 21:00 17,6 C 49 % 1019 hPa 0,0 l/m - - 0,0 km/h (0 Bft)
13.04.2007 22:00 16,0 C 55 % 1019 hPa 0,0 l/m - - 0,0 km/h (0 Bft)
13.04.2007 23:00 15,1 C 58 % 1019 hPa 0,0 l/m - - 0,0 km/h (0 Bft)
14.04.2007 00:00 14,0 C 62 % 1019 hPa 0,0 l/m - - 0,0 km/h (0 Bft)
14.04.2007 01:00 12,7 C 68 % 1019 hPa 0,0 l/m - - 0,0 km/h (0 Bft)
14.04.2007 02:00 11,6 C 71 % 1019 hPa 0,0 l/m - - 0,0 km/h (0 Bft)
14.04.2007 03:00 10,8 C 75 % 1019 hPa 0,0 l/m - - 0,0 km/h (0 Bft)
14.04.2007 04:00 10,0 C 78 % 1019 hPa 0,0 l/m - - 0,0 km/h (0 Bft)
14.04.2007 05:00 9,2 C 82 % 1020 hPa 0,0 l/m - - 0,0 km/h (0 Bft)
14.04.2007 06:00 8,6 C 86 % 1020 hPa 0,0 l/m - - 0,0 km/h (0 Bft)
14.04.2007 07:00 8,9 C 89 % 1021 hPa 0,0 l/m - - 0,0 km/h (0 Bft)
14.04.2007 08:00 11,9 C 80 % 1021 hPa 0,0 l/m - - 0,0 km/h (0 Bft)
14.04.2007 09:00 15,4 C 61 % 1021 hPa 0,0 l/m - - 0,0 km/h (0 Bft)
14.04.2007 10:00 19,3 C 39 % 1021 hPa 0,0 l/m - - 0,0 km/h (0 Bft)
14.04.2007 11:00 21,6 C 31 % 1021 hPa 0,0 l/m - - 0,0 km/h (0 Bft)
14.04.2007 12:00 23,1 C 25 % 1021 hPa 0,0 l/m - - 0,0 km/h (0 Bft)
14.04.2007 13:00 23,6 C 26 % 1021 hPa 0,0 l/m - - 0,0 km/h (0 Bft)
14.04.2007 14:00 24,5 C 25 % 1021 hPa 0,0 l/m - - 0,0 km/h (0 Bft)
14.04.2007 15:00 24,7 C 23 % 1020 hPa 0,0 l/m - - 0,0 km/h (0 Bft)
14.04.2007 16:00 24,5 C 22 % 1020 hPa 0,0 l/m - - 0,0 km/h (0 Bft)
14.04.2007 17:00 24,2 C 22 % 1020 hPa 0,0 l/m - - 0,0 km/h (0 Bft)
14.04.2007 18:00 23,7 C 23 % 1020 hPa 0,0 l/m - - 0,0 km/h (0 Bft)
14.04.2007 19:00 22,3 C 25 % 1021 hPa 0,0 l/m - - 0,0 km/h (0 Bft)
14.04.2007 20:00 20,1 C 31 % 1021 hPa 0,0 l/m - - 0,0 km/h (0 Bft)
14.04.2007 21:00 17,7 C 37 % 1021 hPa 0,0 l/m - - 0,0 km/h (0 Bft)
14.04.2007 22:00 16,1 C 42 % 1022 hPa 0,0 l/m - - 0,0 km/h (0 Bft)
14.04.2007 23:00 15,0 C 42 % 1022 hPa 0,0 l/m - - 0,0 km/h (0 Bft)
15.04.2007 00:00 14,0 C 43 % 1022 hPa 0,0 l/m - - 0,0 km/h (0 Bft)
15.04.2007 01:00 13,5 C 39 % 1022 hPa 0,0 l/m - - 0,0 km/h (0 Bft)
15.04.2007 02:00 12,2 C 42 % 1022 hPa 0,0 l/m - - 0,0 km/h (0 Bft)
15.04.2007 03:00 11,2 C 45 % 1022 hPa 0,0 l/m - - 0,0 km/h (0 Bft)
15.04.2007 04:00 10,3 C 49 % 1023 hPa 0,0 l/m - - 0,0 km/h (0 Bft)
15.04.2007 05:00 9,6 C 55 % 1023 hPa 0,0 l/m - - 0,0 km/h (0 Bft)
15.04.2007 06:00 8,9 C 60 % 1023 hPa 0,0 l/m - - 0,0 km/h (0 Bft)
15.04.2007 07:00 9,1 C 63 % 1023 hPa 0,0 l/m - - 0,0 km/h (0 Bft)
15.04.2007 08:00 12,2 C 52 % 1023 hPa 0,0 l/m - - 0,0 km/h (0 Bft)
15.04.2007 09:00 14,9 C 45 % 1023 hPa 0,0 l/m - - 0,0 km/h (0 Bft)
15.04.2007 10:00 17,6 C 42 % 1023 hPa 0,0 l/m - - 0,0 km/h (0 Bft)
15.04.2007 11:00 19,9 C 36 % 1023 hPa 0,0 l/m - - 0,0 km/h (0 Bft)
15.04.2007 12:00 20,8 C 35 % 1023 hPa 0,0 l/m - - 0,0 km/h (0 Bft)
15.04.2007 13:00 21,9 C 33 % 1023 hPa 0,0 l/m - - 0,0 km/h (0 Bft)
15.04.2007 14:00 23,2 C 28 % 1022 hPa 0,0 l/m - - 0,0 km/h (0 Bft)
15.04.2007 15:00 24,0 C 26 % 1022 hPa 0,0 l/m - - 0,0 km/h (0 Bft)
15.04.2007 16:00 24,0 C 24 % 1021 hPa 0,0 l/m - - 0,0 km/h (0 Bft)
15.04.2007 17:00 23,6 C 22 % 1021 hPa 0,0 l/m - - 0,0 km/h (0 Bft)
15.04.2007 18:00 22,8 C 22 % 1021 hPa 0,0 l/m - - 0,0 km/h (0 Bft)
15.04.2007 19:00 21,0 C 22 % 1021 hPa 0,0 l/m - - 0,0 km/h (0 Bft)
15.04.2007 20:00 19,1 C 24 % 1022 hPa 0,0 l/m - - 0,0 km/h (0 Bft)
15.04.2007 21:00 16,3 C 29 % 1022 hPa 0,0 l/m - - 0,0 km/h (0 Bft)
15.04.2007 22:00 14,8 C 35 % 1022 hPa 0,0 l/m - - 0,0 km/h (0 Bft)
15.04.2007 23:00 13,8 C 37 % 1022 hPa 0,0 l/m - - 0,0 km/h (0 Bft)
Min-Datum _ 09.04.07 14.04.07 09.04.07 - - 09.04.07
_ Min-Zeit 07:00 17:04 17:21 - - 00:00
Minimum _ -0,4 C 21 % 1018 hPa - - 0,0 km/h (0 Bft)
Max-Datum _ 14.04.07 09.04.07 10.04.07 09.04.07 - 09.04.07
_ Max-Zeit 14:21 08:05 22:22 00:00 - 00:00
Maximum _ 25,3 C 94 % 1024 hPa 0,0 l/m - 0,0 km/h
- - (0 Bft)
Durchschnitt _ 14,0 C 52 % 1021 hPa #0,0 l/m - - 0,0 km/h (0 Bft)

Durchschnitt Minimum Temp.13,4 C
Durchschnitt Maximum Temp.14,7 C